createdAt,value
2019-06-10T00:09:47.162Z,26.8
2019-06-10T00:19:46.393Z,26.8
2019-06-10T00:29:45.634Z,26.8
2019-06-10T00:39:44.858Z,26.8
2019-06-10T00:49:44.092Z,26.8
2019-06-10T00:59:43.332Z,26.8
2019-06-10T01:09:42.555Z,26.8
2019-06-10T01:19:41.787Z,26.8
2019-06-10T01:29:42.022Z,26.8
2019-06-10T01:39:41.352Z,26.7
2019-06-10T01:49:41.200Z,26.7
2019-06-10T01:59:41.275Z,26.7
2019-06-10T02:09:40.973Z,26.7
2019-06-10T02:19:38.178Z,26.7
2019-06-10T02:29:37.419Z,26.7
2019-06-10T02:39:38.851Z,26.7
2019-06-10T02:49:52.431Z,26.7
2019-06-10T02:59:36.231Z,26.7
2019-06-10T03:09:35.643Z,26.6
2019-06-10T03:19:43.854Z,26.7
2019-06-10T03:29:32.863Z,26.7
2019-06-10T03:39:32.283Z,26.7
2019-06-10T03:49:32.144Z,26.7
2019-06-10T03:59:32.372Z,26.7
2019-06-10T04:09:29.726Z,26.8
2019-06-10T04:19:28.961Z,26.8
2019-06-10T04:29:29.041Z,26.8
2019-06-10T04:39:27.979Z,26.8
2019-06-10T04:49:28.004Z,26.8
2019-06-10T04:59:27.640Z,26.8
2019-06-10T05:09:27.279Z,26.8
2019-06-10T05:19:25.844Z,26.8
2019-06-10T05:29:26.803Z,26.8
2019-06-10T05:39:24.161Z,26.8
2019-06-10T05:49:24.061Z,26.8
2019-06-10T05:59:22.968Z,26.8
2019-06-10T06:09:22.100Z,26.8
2019-06-10T06:19:19.748Z,26.8
2019-06-10T06:29:18.986Z,26.8
2019-06-10T06:39:18.215Z,26.8
2019-06-10T06:49:17.448Z,26.8
2019-06-10T06:59:16.673Z,26.8
2019-06-10T07:09:15.904Z,26.8
2019-06-10T07:19:15.134Z,26.8
2019-06-10T07:29:14.373Z,26.8
2019-06-10T07:39:13.619Z,26.8
2019-06-10T07:49:13.400Z,26.8
2019-06-10T07:59:12.864Z,26.8
2019-06-10T08:09:12.600Z,26.8
2019-06-10T08:19:25.775Z,26.8
2019-06-10T08:29:09.754Z,26.8
2019-06-10T08:39:11.995Z,26.8
2019-06-10T08:49:08.224Z,26.9
2019-06-10T08:59:07.468Z,26.9
2019-06-10T09:09:06.679Z,26.9
2019-06-10T09:19:05.917Z,26.9
2019-06-10T09:29:05.199Z,27
2019-06-10T09:39:04.380Z,27
2019-06-10T09:49:03.607Z,27
2019-06-10T09:59:03.305Z,27
2019-06-10T10:09:03.439Z,27
2019-06-10T10:19:05.041Z,27.1
2019-06-10T10:29:02.600Z,27.1
2019-06-10T10:39:02.255Z,27.1
2019-06-10T10:48:59.006Z,27.1
2019-06-10T10:58:58.659Z,27.1
2019-06-10T11:08:57.757Z,27.1
2019-06-10T11:18:57.986Z,27.1
2019-06-10T11:28:55.926Z,27.1
2019-06-10T11:38:57.408Z,27.1
2019-06-10T11:48:57.223Z,27.1
2019-06-10T11:58:56.794Z,27.1
2019-06-10T12:08:55.144Z,27.1
2019-06-10T12:18:54.113Z,27.1
2019-06-10T12:28:54.504Z,27.1
2019-06-10T12:38:53.363Z,27.1
2019-06-10T12:48:49.792Z,27.1
2019-06-10T12:58:49.022Z,27.1
2019-06-10T13:08:48.298Z,27.1
2019-06-10T13:18:47.479Z,27.2
2019-06-10T13:28:46.724Z,27.2
2019-06-10T13:38:45.954Z,27.3
2019-06-10T13:48:45.185Z,27.3
2019-06-10T13:58:46.177Z,27.3
2019-06-10T14:08:43.791Z,27.4
2019-06-10T14:18:42.878Z,27.4
2019-06-10T14:28:44.301Z,27.3
2019-06-10T14:38:42.060Z,27.3
2019-06-10T14:48:42.606Z,27.3
2019-06-10T14:58:42.272Z,27.3
2019-06-10T15:08:39.039Z,27.3
2019-06-10T15:18:38.270Z,27.3
2019-06-10T15:28:37.503Z,27.3
2019-06-10T15:38:36.740Z,27.3
2019-06-10T15:48:35.971Z,27.3
2019-06-10T15:58:35.202Z,27.3
2019-06-10T16:08:34.436Z,27.3
2019-06-10T16:18:33.678Z,27.3
2019-06-10T16:28:33.090Z,27.1
2019-06-10T16:38:32.770Z,26.9
2019-06-10T16:48:33.318Z,26.8
2019-06-10T16:58:33.152Z,26.8
2019-06-10T17:08:30.276Z,26.7
2019-06-10T17:18:30.007Z,26.6
2019-06-10T17:28:31.140Z,26.7
2019-06-10T17:38:28.864Z,26.8
2019-06-10T17:48:27.890Z,26.8
2019-06-10T17:58:38.310Z,26.8
2019-06-10T18:08:25.972Z,26.8
2019-06-10T18:18:24.489Z,26.6
2019-06-10T18:28:24.853Z,26.5
2019-06-10T18:38:22.970Z,26.4
2019-06-10T18:48:23.063Z,26.3
2019-06-10T18:58:22.301Z,26.2
2019-06-10T19:08:22.288Z,26.1
2019-06-10T19:18:19.910Z,26
2019-06-10T19:28:19.146Z,25.9
2019-06-10T19:38:18.374Z,25.8
2019-06-10T19:48:17.617Z,25.8
2019-06-10T19:58:16.858Z,26
2019-06-10T20:08:16.080Z,26.1
2019-06-10T20:18:15.351Z,26.2
2019-06-10T20:28:14.560Z,26.1
2019-06-10T20:38:13.797Z,26.2
2019-06-10T20:48:13.035Z,26.3
2019-06-10T20:58:12.441Z,26.3
2019-06-10T21:10:03.148Z,26.5
2019-06-10T21:20:03.330Z,26.6
2019-06-10T21:30:03.053Z,26.6
2019-06-10T21:40:03.214Z,26.6
2019-06-10T21:50:00.086Z,26.6
2019-06-10T21:59:59.313Z,26.8
2019-06-10T22:09:58.576Z,26.9
2019-06-10T22:19:57.947Z,26.9
2019-06-10T22:29:57.283Z,26.9
2019-06-10T22:39:57.893Z,26.8
2019-06-10T22:49:57.704Z,26.9
2019-06-10T22:59:56.481Z,26.9
2019-06-10T23:09:55.991Z,26.9
2019-06-10T23:19:54.838Z,27
2019-06-10T23:29:54.329Z,27.1
2019-06-10T23:39:52.736Z,27.1
2019-06-10T23:49:51.442Z,27
2019-06-10T23:59:52.402Z,27
